• Join FlightAware (Why Join?)
  • Login
  • US Flag 
06:03AM EST


 

Airport Tracker/Info


-or-


 

Live Flight TrackerFlight Track Log ✈ SWA1718 ✈ 24-Apr-2013 ✈ KMDW - KBUF

Flight Track Log - Related Links

Times and Time Zones

All times are in EDT time to prevent confusion due to time zone crossing. See the SWA1718 flight status page for this flight to view local times or setup timezone preferences in your user account.

Time Position Orientation Groundspeed Altitude Reporting Facility
EDT Latitude Longitude Course Direction KTS MPH feet Rate Location/Type
10:01PM 41.8167 -87.7667 90° East 191 220 3,000  Level Chicago TRACON
10:03PM 41.8086 -87.5511 93° East 273 314 5,100 1,108 Climbing Chicago Center
10:04PM 41.7989 -87.4478 97° East 279 321 6,600 2,213 Climbing Chicago Center
10:05PM 41.7883 -87.3406 97° East 288 331 9,600 2,341 Climbing Chicago Center
10:06PM 41.7500 -87.0235 90° East  Level FlightAware Approximate
10:06PM 41.7772 -87.2175 97° East 325 374 11,400  Level Chicago Center
10:07PM 41.7625 -87.0725 98° East 383 441 14,400 1,805 Climbing Chicago Center
10:08PM 41.7625 -86.9211 90° East 410 472 15,100 1,561 Climbing Chicago Center
10:09PM 41.7656 -86.7342 89° East 418 481 17,600 2,049 Climbing Chicago Center
10:10PM 41.7664 -86.5989 89° East 422 486 19,300 1,902 Climbing Chicago Center
10:11PM 41.7664 -86.4353 90° East 437 503 21,500 1,820 Climbing Chicago Center
10:12PM 41.7781 -86.2653 85° East 462 532 23,000 1,854 Climbing Chicago Center
10:13PM 41.8119 -86.0600 77° East 470 541 25,300 1,951 Climbing Chicago Center
10:14PM 41.8417 -85.8861 77° East 474 545 27,000 1,366 Climbing Chicago Center
10:15PM 41.8725 -85.7072 77° East 486 559 28,100 1,073 Climbing Chicago Center
10:16PM 41.9039 -85.5208 77° East 502 578 29,200 1,082 Climbing Chicago Center
10:17PM 41.9344 -85.3300 78° East 514 592 30,300 1,165 Climbing Chicago Center
10:18PM 41.9522 -85.2047 79° East 506 582 31,200 1,353 Climbing Cleveland Center
10:19PM 41.9536 -85.0147 89° East 506 582 32,600 1,200 Climbing Cleveland Center
10:20PM 41.9525 -84.8192 90° East 506 582 33,600 850 Climbing Cleveland Center
10:21PM 41.9636 -84.6272 85° East 511 588 34,300 700 Climbing Cleveland Center
10:22PM 41.9892 -84.4303 80° East 518 596 35,000 400 Climbing Cleveland Center
10:23PM 42.0086 -84.2164 83° East 523 602 35,100 50 Climbing Cleveland Center
10:24PM 42.0333 -84.0247 80° East 523 602 35,100  Level Cleveland Center
10:25PM 42.0558 -83.8300 81° East 523 602 35,100  Level Cleveland Center
10:26PM 42.0778 -83.6353 81° East 518 596 35,100  Level Cleveland Center
10:27PM 42.0947 -83.4600 83° East 523 602 35,100  Level Cleveland Center
10:28PM 42.1203 -83.2678 80° East 523 602 35,100  Level Cleveland Center
10:29PM 42.1414 -83.0728 82° East 523 602 35,100  Level Cleveland Center
10:30PM 42.1558 -82.8800 84° East 518 596 35,100  Level Cleveland Center
10:31PM 42.1825 -82.6875 79° East 518 596 35,100  Level Cleveland Center
10:32PM 42.2025 -82.4892 82° East 523 602 35,100  Level Cleveland Center
10:33PM 42.2222 -82.2936 82° East 523 602 35,100  Level Cleveland Center
10:34PM 42.2442 -82.0781 82° East 523 602 35,100 -350 Level Cleveland Center
10:35PM 42.2653 -81.8822 82° East 518 596 34,400 -750 Descending Cleveland Center
10:36PM 42.2817 -81.7086 83° East 525 604 33,600 -900 Descending Cleveland Center
10:37PM 42.3106 -81.5153 79° East 530 610 32,600 -1,000 Descending Cleveland Center
10:38PM 42.3578 -81.3278 71° East 521 600 31,600 -950 Descending Cleveland Center
10:39PM 42.4006 -81.1400 73° East 521 600 30,700 -1,000 Descending Cleveland Center
10:40PM 42.4472 -80.9489 72° East 521 600 29,600 -1,000 Descending Cleveland Center
10:41PM 42.4933 -80.7464 73° East 521 600 28,700 -1,100 Descending Cleveland Center
10:42PM 42.5331 -80.5692 73° East 508 585 27,400 -1,650 Descending Cleveland Center
10:43PM 42.5767 -80.3886 72° East 494 568 25,400 -2,200 Descending Cleveland Center
10:44PM 42.6139 -80.2164 74° East 480 552 23,000 -2,350 Descending Cleveland Center
10:45PM 42.6486 -80.0581 73° East 454 522 20,700 -2,250 Descending Cleveland Center
10:46PM 42.6894 -79.8997 71° East 442 509 18,500 -2,050 Descending Cleveland Center
10:47PM 42.7200 -79.7553 74° East 425 489 16,600 -2,050 Descending Cleveland Center
10:48PM 42.7522 -79.6133 73° East 400 460 14,400 -2,200 Descending Cleveland Center
10:49PM 42.7800 -79.4772 74° East 380 437 12,200 -2,050 Descending Cleveland Center
10:50PM 42.8100 -79.3464 73° East 368 423 10,300 -1,300 Descending Cleveland Center
10:51PM 42.8358 -79.2300 73° East 341 392 9,600 -1,050 Descending Cleveland Center
10:52PM 42.8594 -79.1217 73° East 308 354 8,200 -1,400 Descending Cleveland Center
10:53PM 42.8811 -79.0306 72° East 288 331 6,800 -1,450 Descending Cleveland Center
10:54PM 42.9258 -78.9472 54° Northeast 276 318 5,300 -900 Descending Cleveland Center
10:55PM 42.9744 -78.8522 55° Northeast 270 311 5,000 -202 Descending Cleveland Center
10:56PM 43.0167 -78.7667 56° Northeast 277 319 4,900 -454 Descending Buffalo TRACON
10:57PM 43.0667 -78.6833 51° Northeast 267 307 4,100 -950 Descending Buffalo TRACON
10:58PM 43.0667 -78.6000 90° East 237 273 3,000 -950 Descending Buffalo TRACON
10:59PM 43.0167 -78.6167 194° South 162 186 2,200 -550 Descending Buffalo TRACON
11:00PM 43.0000 -78.6500 236° Southwest 136 157 1,900 -450 Descending Buffalo TRACON
11:01PM 42.9667 -78.6833 216° Southwest 124 143 1,300 -600 Descending Buffalo TRACON